Time;durP1;ratioP1;P1;durP2;ratioP2;P2;SDS_P1;SDS_P2;PMS_P1;PMS_P2;Temp;Humidity;BMP_temperature;BMP_pressure;BME280_temperature;BME280_humidity;BME280_pressure;Samples;Min_cycle;Max_cycle;Signal;HPM_P1;HPM_P2
2021/04/25 00:02:04;;;;;;;28.15;20.25;;;;;;;5.23;67.76;98678.37;1741713;82;21033;-66
2021/04/25 00:04:31;;;;;;;26.45;19.67;;;;;;;5.23;67.63;98678.37;1741793;82;21018;-66
2021/04/25 00:07:00;;;;;;;28.55;17.95;;;;;;;5.21;67.44;98672.25;1741723;82;21364;-66
2021/04/25 00:09:27;;;;;;;26.82;19.02;;;;;;;5.22;67.38;98666.86;1741721;82;21336;-66
2021/04/25 00:11:55;;;;;;;25.35;18.23;;;;;;;5.23;67.48;98669.05;1741676;81;20950;-66
2021/04/25 00:14:24;;;;;;;24.57;18.07;;;;;;;5.23;67.72;98663.72;1741762;82;20958;-66
2021/04/25 00:16:52;;;;;;;28.75;18.73;;;;;;;5.23;67.82;98665.05;1741700;82;20946;-65
2021/04/25 00:19:19;;;;;;;26.60;18.87;;;;;;;5.24;67.97;98664.13;1741775;82;21504;-66
2021/04/25 00:21:48;;;;;;;30.95;19.48;;;;;;;5.23;67.77;98653.07;1741642;82;21029;-66
2021/04/25 00:24:16;;;;;;;18.87;14.30;;;;;;;5.24;67.79;98650.81;1741802;82;20950;-66
2021/04/25 00:26:43;;;;;;;17.02;13.90;;;;;;;5.24;67.41;98652.15;1741701;82;20930;-66
2021/04/25 00:29:12;;;;;;;23.27;15.28;;;;;;;5.22;67.22;98645.56;1741686;81;21018;-66
2021/04/25 00:31:40;;;;;;;21.48;13.80;;;;;;;5.23;67.35;98641.09;1741681;82;21382;-67
2021/04/25 00:34:09;;;;;;;19.95;14.05;;;;;;;5.23;67.31;98641.09;1741801;82;21436;-66
2021/04/25 00:36:37;;;;;;;23.12;14.35;;;;;;;5.24;67.32;98642.83;1741715;82;20938;-66
2021/04/25 00:39:06;;;;;;;20.88;15.25;;;;;;;5.24;67.55;98634.84;1741695;82;20946;-66
2021/04/25 00:41:33;;;;;;;22.32;15.65;;;;;;;5.25;67.50;98647.23;1741804;82;21458;-66
2021/04/25 00:44:03;;;;;;;23.35;16.15;;;;;;;5.24;67.87;98629.52;1741748;82;21216;-66
2021/04/25 00:46:31;;;;;;;25.52;16.50;;;;;;;5.22;67.88;98633.58;1741647;82;20989;-66
2021/04/25 00:49:00;;;;;;;22.27;15.88;;;;;;;5.21;67.70;98632.31;1741696;82;21018;-65
2021/04/25 00:51:31;;;;;;;23.05;16.05;;;;;;;5.20;67.69;98630.56;1741659;82;20962;-66
2021/04/25 00:54:01;;;;;;;24.67;16.67;;;;;;;5.19;67.82;98619.53;1741708;82;21018;-66
2021/04/25 00:56:30;;;;;;;19.10;15.85;;;;;;;5.17;67.80;98620.05;1741761;82;22142;-65
2021/04/25 00:58:57;;;;;;;26.37;16.15;;;;;;;5.15;68.07;98618.78;1741655;82;20946;-66
2021/04/25 01:01:26;;;;;;;26.40;17.12;;;;;;;5.14;68.09;98617.52;1741693;82;20935;-66
2021/04/25 01:03:55;;;;;;;19.85;15.32;;;;;;;5.13;68.29;98611.81;1741618;82;20915;-65
2021/04/25 01:06:22;;;;;;;23.12;15.88;;;;;;;5.14;68.60;98618.85;1741790;82;21001;-66
2021/04/25 01:08:49;;;;;;;25.62;16.85;;;;;;;5.12;68.82;98607.41;1741725;82;21342;-66
2021/04/25 01:11:18;;;;;;;23.60;16.32;;;;;;;5.13;68.93;98611.81;1741605;82;20986;-65
2021/04/25 01:13:50;;;;;;;28.67;19.23;;;;;;;5.13;68.97;98601.16;1741657;82;20947;-65
2021/04/25 01:16:16;;;;;;;27.15;18.70;;;;;;;5.14;69.12;98605.54;1741625;82;20938;-65
2021/04/25 01:18:44;;;;;;;31.52;20.37;;;;;;;5.16;69.37;98609.02;1741813;82;20930;-65
2021/04/25 01:21:11;;;;;;;28.77;19.73;;;;;;;5.13;69.80;98598.03;1741779;82;22290;-66
2021/04/25 01:23:39;;;;;;;27.45;20.02;;;;;;;5.14;70.10;98593.55;1741594;82;21029;-66
2021/04/25 01:26:08;;;;;;;34.25;20.95;;;;;;;5.15;70.23;98591.30;1741750;82;20942;-66
2021/04/25 01:28:36;;;;;;;26.12;20.30;;;;;;;5.15;70.51;98585.98;1741446;81;20956;-66
2021/04/25 01:31:04;;;;;;;23.75;18.45;;;;;;;5.16;70.64;98583.72;1741722;82;20963;-66
2021/04/25 01:33:33;;;;;;;28.05;19.27;;;;;;;5.16;70.78;98583.72;1741644;82;21396;-66
2021/04/25 01:36:04;;;;;;;25.95;18.60;;;;;;;5.16;70.93;98583.72;1741642;82;20962;-66
2021/04/25 01:38:31;;;;;;;26.57;18.42;;;;;;;5.17;70.96;98586.77;1741687;82;21002;-65
2021/04/25 01:41:01;;;;;;;25.20;17.73;;;;;;;5.17;71.00;98585.44;1741647;82;20997;-66
2021/04/25 01:43:28;;;;;;;29.18;18.32;;;;;;;5.17;71.12;98574.78;1741737;82;20943;-66
2021/04/25 01:45:55;;;;;;;28.17;18.92;;;;;;;5.18;71.27;98576.52;1741776;82;22288;-66
2021/04/25 01:48:25;;;;;;;24.92;18.57;;;;;;;5.17;71.28;98569.45;1741624;82;20954;-66
2021/04/25 01:50:52;;;;;;;27.20;19.75;;;;;;;5.17;71.33;98570.34;1741676;82;21026;-65
2021/04/25 01:53:20;;;;;;;24.95;19.10;;;;;;;5.17;71.38;98570.78;1741581;82;20986;-67
2021/04/25 01:55:48;;;;;;;27.15;19.12;;;;;;;5.16;71.46;98559.76;1741771;82;20930;-67
2021/04/25 01:58:18;;;;;;;25.88;18.67;;;;;;;5.15;71.66;98570.86;1741621;82;20950;-67
2021/04/25 02:00:45;;;;;;;23.70;15.78;;;;;;;5.14;71.66;98572.25;1741579;82;20942;-66
2021/04/25 02:03:15;;;;;;;25.62;18.75;;;;;;;5.14;71.82;98565.59;1741639;82;20926;-66
2021/04/25 02:05:43;;;;;;;30.00;19.77;;;;;;;5.13;71.96;98573.20;1741632;82;21025;-66
2021/04/25 02:08:11;;;;;;;28.23;19.70;;;;;;;5.07;71.61;98579.18;1741689;82;21014;-66
2021/04/25 02:10:42;;;;;;;30.90;19.55;;;;;;;4.99;71.52;98577.80;1741660;82;21384;-66
2021/04/25 02:13:10;;;;;;;23.80;16.97;;;;;;;4.90;71.73;98580.38;1741528;82;21013;-64
2021/04/25 02:15:39;;;;;;;23.02;15.98;;;;;;;4.87;71.63;98575.20;1741710;82;21372;-67
2021/04/25 02:18:09;;;;;;;27.30;16.52;;;;;;;4.82;71.58;98577.20;1741743;82;20907;-66
2021/04/25 02:20:36;;;;;;;20.50;15.43;;;;;;;4.78;71.67;98567.64;1741656;82;21396;-66
2021/04/25 02:23:04;;;;;;;18.82;14.85;;;;;;;4.77;71.75;98569.41;1741621;82;21207;-66
2021/04/25 02:25:32;;;;;;;19.48;15.45;;;;;;;4.76;71.94;98565.48;1741634;82;21024;-66
2021/04/25 02:28:00;;;;;;;17.80;15.10;;;;;;;4.77;71.95;98565.89;1741412;82;20994;-66
2021/04/25 02:30:32;;;;;;;19.02;14.53;;;;;;;4.77;72.10;98557.91;1741662;82;21065;-65
2021/04/25 02:32:59;;;;;;;18.12;14.78;;;;;;;4.77;71.96;98559.24;1741711;82;21442;-66
2021/04/25 02:35:28;;;;;;;19.20;14.00;;;;;;;4.78;71.53;98553.00;1741652;82;21462;-66
2021/04/25 02:37:57;;;;;;;16.80;13.35;;;;;;;4.80;71.29;98549.80;1741626;82;20950;-66
2021/04/25 02:40:29;;;;;;;18.62;13.32;;;;;;;4.81;70.74;98558.16;1741641;82;20914;-65
2021/04/25 02:42:57;;;;;;;16.93;13.55;;;;;;;4.82;70.24;98550.59;1741690;82;20894;-65
2021/04/25 02:45:25;;;;;;;17.15;13.88;;;;;;;4.82;70.16;98544.78;1741674;82;20939;-65
2021/04/25 02:47:58;;;;;;;17.15;14.40;;;;;;;4.82;70.28;98538.13;1741720;82;22268;-65
2021/04/25 02:50:29;;;;;;;16.97;13.58;;;;;;;4.83;70.56;98537.69;1741692;82;20950;-66
2021/04/25 02:52:57;;;;;;;16.70;13.38;;;;;;;4.83;70.56;98539.02;1741783;82;20899;-66
2021/04/25 02:55:25;;;;;;;21.55;14.13;;;;;;;4.82;70.68;98542.60;1741791;82;20939;-66
2021/04/25 02:57:52;;;;;;;19.37;14.73;;;;;;;4.82;70.66;98550.11;1741928;82;21455;-66
2021/04/25 03:00:25;;;;;;;21.62;14.28;;;;;;;4.82;70.46;98547.92;1741816;82;22171;-66
2021/04/25 03:02:53;;;;;;;19.98;14.03;;;;;;;4.81;70.36;98547.52;1741718;82;20993;-66
2021/04/25 03:05:21;;;;;;;20.77;14.73;;;;;;;4.82;70.72;98543.93;1741798;82;21034;-66
2021/04/25 03:07:49;;;;;;;16.77;13.53;;;;;;;4.81;70.69;98549.73;1741762;82;21025;-66
2021/04/25 03:10:17;;;;;;;15.72;13.03;;;;;;;4.80;70.24;98544.48;1741815;82;20890;-65
2021/04/25 03:12:47;;;;;;;19.42;14.23;;;;;;;4.81;70.18;98550.17;1741778;82;21366;-65
2021/04/25 03:15:16;;;;;;;19.25;14.55;;;;;;;4.79;70.18;98536.94;1741792;82;20958;-66
2021/04/25 03:17:44;;;;;;;17.12;13.18;;;;;;;4.79;70.42;98542.73;1741729;82;20934;-66
2021/04/25 03:20:15;;;;;;;19.77;14.85;;;;;;;4.77;70.33;98540.62;1741865;82;21025;-65
2021/04/25 03:22:43;;;;;;;19.10;14.47;;;;;;;4.76;70.18;98537.55;1741816;82;21013;-65
2021/04/25 03:25:11;;;;;;;28.98;21.00;;;;;;;4.77;70.31;98536.63;1741829;82;21207;-66
2021/04/25 03:27:40;;;;;;;27.98;20.77;;;;;;;4.76;70.38;98536.22;1741651;82;21041;-66
2021/04/25 03:30:10;;;;;;;41.40;28.52;;;;;;;4.76;70.44;98537.55;1752277;81;20914;-66
2021/04/25 03:32:37;;;;;;;45.45;28.05;;;;;;;4.75;70.54;98539.35;1755089;81;21371;-66
2021/04/25 03:35:28;;;;;;;41.45;27.52;;;;;;;4.72;70.65;98539.48;1755166;81;20942;-66
2021/04/25 03:37:58;;;;;;;32.90;24.18;;;;;;;4.70;70.84;98530.23;1765871;81;21330;-65
2021/04/25 03:40:27;;;;;;;27.17;20.37;;;;;;;4.68;71.08;98537.43;1765783;81;20908;-66
2021/04/25 03:42:54;;;;;;;28.17;18.90;;;;;;;4.67;71.07;98537.02;1765844;81;21006;-65
2021/04/25 03:45:22;;;;;;;27.45;18.73;;;;;;;4.65;71.13;98535.34;1765856;81;21003;-65
2021/04/25 03:47:51;;;;;;;26.00;17.67;;;;;;;4.64;71.34;98537.15;1765832;81;21026;-66
2021/04/25 03:50:21;;;;;;;24.23;17.40;;;;;;;4.64;71.62;98541.14;1765821;81;21454;-66
2021/04/25 03:52:49;;;;;;;22.80;17.00;;;;;;;4.63;71.78;98526.09;1765807;81;21389;-66
2021/04/25 03:55:18;;;;;;;21.48;16.48;;;;;;;4.64;71.97;98528.31;1765964;81;21389;-66
2021/04/25 03:57:45;;;;;;;18.92;15.08;;;;;;;4.65;72.07;98525.59;1765807;81;20944;-67
2021/04/25 04:00:15;;;;;;;21.85;15.48;;;;;;;4.69;72.12;98527.16;1765842;81;20987;-66
2021/04/25 04:02:44;;;;;;;18.67;14.75;;;;;;;4.72;71.96;98522.66;1765875;81;22162;-65
2021/04/25 04:05:14;;;;;;;20.75;14.28;;;;;;;4.76;71.97;98517.14;1765880;81;21404;-65
2021/04/25 04:07:42;;;;;;;19.92;14.53;;;;;;;4.83;72.04;98515.07;1765819;81;21019;-66
2021/04/25 04:10:11;;;;;;;21.00;15.20;;;;;;;4.90;71.66;98517.84;1765739;81;20975;-66
2021/04/25 04:12:40;;;;;;;18.20;15.53;;;;;;;4.94;71.38;98515.92;1765874;81;21642;-66
2021/04/25 04:15:09;;;;;;;24.70;19.87;;;;;;;5.03;71.48;98515.05;1765862;81;21358;-66
2021/04/25 04:17:37;;;;;;;23.32;18.77;;;;;;;5.13;71.43;98519.95;1765748;81;20963;-66
2021/04/25 04:20:06;;;;;;;28.85;17.65;;;;;;;5.26;71.27;98521.11;1765832;81;20999;-66
2021/04/25 04:22:33;;;;;;;24.07;16.50;;;;;;;5.36;70.64;98514.44;1765794;81;21022;-66
2021/04/25 04:25:06;;;;;;;24.07;16.05;;;;;;;5.50;70.38;98504.92;1765884;81;20928;-66
2021/04/25 04:27:35;;;;;;;23.00;17.73;;;;;;;5.59;69.86;98509.83;1765898;81;21388;-66
2021/04/25 04:30:06;;;;;;;22.40;16.45;;;;;;;5.65;69.94;98508.20;1765783;81;20998;-66
2021/04/25 04:32:35;;;;;;;24.85;18.50;;;;;;;5.70;69.57;98502.66;1765785;81;20923;-67
2021/04/25 04:35:04;;;;;;;22.37;17.92;;;;;;;5.75;69.13;98504.63;1765738;81;22210;-66
2021/04/25 04:37:32;;;;;;;24.87;17.30;;;;;;;5.78;68.95;98504.48;1759478;81;20979;-66
2021/04/25 04:40:01;;;;;;;24.05;17.70;;;;;;;5.83;68.62;98514.92;1757505;81;21625;-66
2021/04/25 04:42:29;;;;;;;24.35;16.80;;;;;;;5.84;68.49;98516.66;1757367;81;21023;-66
2021/04/25 04:44:57;;;;;;;21.52;15.88;;;;;;;5.85;67.54;98526.36;1757539;81;20955;-66
2021/04/25 04:47:25;;;;;;;23.83;15.88;;;;;;;5.85;67.08;98527.70;1757425;81;20904;-66
2021/04/25 04:49:53;;;;;;;18.80;14.28;;;;;;;5.85;67.10;98537.02;1757447;81;20968;-67
2021/04/25 04:52:21;;;;;;;22.50;14.85;;;;;;;5.83;67.50;98533.58;1757407;81;21381;-67
2021/04/25 04:54:49;;;;;;;18.02;15.70;;;;;;;5.82;67.84;98518.52;1757483;81;20900;-66
2021/04/25 04:57:17;;;;;;;18.62;15.60;;;;;;;5.82;67.94;98505.19;1757451;81;20928;-66
2021/04/25 04:59:44;;;;;;;18.75;14.98;;;;;;;5.79;67.93;98495.08;1757471;81;20995;-66
2021/04/25 05:02:12;;;;;;;21.07;16.17;;;;;;;5.79;67.92;98500.41;1757428;81;20939;-67
2021/04/25 05:04:41;;;;;;;32.48;17.27;;;;;;;5.82;67.80;98502.07;1757539;81;22096;-66
2021/04/25 05:07:09;;;;;;;21.70;17.15;;;;;;;5.85;68.18;98507.70;1757363;81;20972;-66
2021/04/25 05:09:38;;;;;;;18.25;15.80;;;;;;;5.89;68.11;98525.29;1757458;81;21373;-66
2021/04/25 05:12:08;;;;;;;19.25;15.20;;;;;;;5.93;67.46;98536.21;1757325;81;22290;-67
2021/04/25 05:14:36;;;;;;;17.42;14.83;;;;;;;5.98;67.90;98544.87;1757558;81;20925;-67
2021/04/25 05:17:04;;;;;;;16.90;15.00;;;;;;;6.04;68.07;98555.25;1757458;81;21384;-66
2021/04/25 05:19:33;;;;;;;18.30;14.18;;;;;;;6.09;68.52;98553.69;1757352;81;21022;-66
2021/04/25 05:22:02;;;;;;;25.20;17.55;;;;;;;6.11;68.49;98559.33;1757376;80;21007;-67
2021/04/25 05:24:29;;;;;;;19.55;15.98;;;;;;;6.13;68.81;98558.80;1757422;81;20927;-66
2021/04/25 05:26:58;;;;;;;23.92;15.88;;;;;;;6.11;68.59;98556.66;1757417;81;20928;-66
2021/04/25 05:29:26;;;;;;;22.85;16.20;;;;;;;6.12;68.56;98553.06;1757382;81;21491;-66
2021/04/25 05:31:54;;;;;;;12.13;10.82;;;;;;;6.15;68.58;98532.06;1757307;81;21069;-66
2021/04/25 05:34:22;;;;;;;17.37;10.85;;;;;;;6.19;67.70;98532.77;1757471;81;21018;-65
2021/04/25 05:36:49;;;;;;;14.68;11.45;;;;;;;6.22;67.69;98525.95;1755523;81;20900;-67
2021/04/25 05:39:18;;;;;;;12.25;9.23;;;;;;;6.24;67.05;98530.72;1751836;82;21361;-67
2021/04/25 05:41:48;;;;;;;10.85;8.73;;;;;;;6.28;66.73;98525.16;1715693;83;21205;-66
2021/04/25 05:44:16;;;;;;;13.58;9.60;;;;;;;6.35;66.31;98524.38;1751764;82;20975;-66
2021/04/25 05:46:46;;;;;;;12.53;9.13;;;;;;;6.38;66.67;98520.23;1715736;83;20932;-66
2021/04/25 05:49:15;;;;;;;9.68;8.68;;;;;;;6.43;66.13;98518.21;1715646;83;21024;-66
2021/04/25 05:51:42;;;;;;;12.93;8.43;;;;;;;6.50;66.88;98528.09;1751764;82;20959;-66
2021/04/25 05:54:10;;;;;;;15.15;8.33;;;;;;;6.56;66.43;98530.91;1715681;83;21438;-64
2021/04/25 05:56:39;;;;;;;12.28;7.75;;;;;;;6.60;66.44;98529.34;1715667;83;20972;-66
2021/04/25 05:59:09;;;;;;;11.70;7.95;;;;;;;6.67;66.18;98533.91;1715689;83;20953;-69
2021/04/25 06:01:36;;;;;;;8.73;7.60;;;;;;;6.72;66.07;98531.86;1715617;83;20936;-66
2021/04/25 06:04:06;;;;;;;10.25;6.80;;;;;;;6.78;66.12;98532.88;1751804;82;20947;-65
2021/04/25 06:06:33;;;;;;;11.03;7.17;;;;;;;6.83;66.03;98533.50;1751892;82;21420;-67
2021/04/25 06:09:03;;;;;;;8.65;7.75;;;;;;;6.90;65.78;98533.19;1715707;83;21032;-66
2021/04/25 06:11:34;;;;;;;7.42;6.28;;;;;;;6.97;65.65;98529.23;1751786;82;21003;-67
2021/04/25 06:14:08;;;;;;;7.12;6.10;;;;;;;7.03;65.50;98531.58;1715644;83;21023;-67
2021/04/25 06:16:35;;;;;;;7.62;5.05;;;;;;;7.12;65.25;98532.44;1687021;85;21018;-67
2021/04/25 06:19:05;;;;;;;6.25;4.35;;;;;;;7.18;65.55;98524.09;1751746;82;21397;-68
2021/04/25 06:21:32;;;;;;;5.17;4.60;;;;;;;7.24;64.82;98523.77;1715609;83;21469;-68
2021/04/25 06:24:01;;;;;;;10.30;5.55;;;;;;;7.34;64.66;98522.79;1715625;83;21054;-67
2021/04/25 06:26:28;;;;;;;7.85;5.15;;;;;;;7.45;64.32;98528.89;1715643;83;21492;-68
2021/04/25 06:28:56;;;;;;;6.10;4.95;;;;;;;7.58;64.14;98527.73;1687053;85;20966;-67
2021/04/25 06:31:25;;;;;;;9.05;5.78;;;;;;;7.76;63.53;98533.89;1751830;82;21643;-67
2021/04/25 06:33:53;;;;;;;5.83;4.05;;;;;;;7.98;63.53;98540.70;1715579;83;21007;-67
2021/04/25 06:36:21;;;;;;;4.75;3.45;;;;;;;8.23;61.48;98534.35;1686938;85;21009;-67
2021/04/25 06:38:51;;;;;;;4.97;3.87;;;;;;;8.49;60.40;98527.98;1757198;81;21042;-69
2021/04/25 06:41:20;;;;;;;6.08;4.45;;;;;;;8.70;58.84;98531.67;1723667;83;20968;-69
2021/04/25 06:43:52;;;;;;;5.90;4.90;;;;;;;8.88;60.65;98539.07;1694909;84;21307;-68
2021/04/25 06:46:23;;;;;;;7.55;4.85;;;;;;;8.98;61.55;98542.94;1710876;84;21039;-69
2021/04/25 06:48:51;;;;;;;9.73;4.50;;;;;;;8.97;61.12;98547.89;1693205;84;21043;-69
2021/04/25 06:51:19;;;;;;;8.90;5.53;;;;;;;8.98;60.37;98543.78;1694669;84;20947;-67
2021/04/25 06:53:48;;;;;;;9.70;5.60;;;;;;;8.95;58.77;98546.65;1710779;83;20956;-67
2021/04/25 06:56:16;;;;;;;9.23;6.22;;;;;;;9.00;58.60;98547.26;1731668;82;21366;-68
2021/04/25 06:58:45;;;;;;;7.80;5.67;;;;;;;9.12;58.06;98546.97;1757278;81;21007;-67
2021/04/25 07:01:16;;;;;;;6.75;5.25;;;;;;;9.33;57.54;98543.47;1757419;81;20948;-66
2021/04/25 07:03:44;;;;;;;6.80;5.92;;;;;;;9.60;56.90;98545.34;1757376;81;21030;-66
2021/04/25 07:06:13;;;;;;;7.35;6.08;;;;;;;9.88;56.99;98544.45;1723670;83;20952;-68
2021/04/25 07:08:43;;;;;;;8.60;5.80;;;;;;;10.12;56.29;98544.70;1694673;84;21385;-67
2021/04/25 07:11:10;;;;;;;10.20;5.67;;;;;;;10.32;55.51;98546.55;1710740;84;21027;-67
2021/04/25 07:13:39;;;;;;;6.85;6.12;;;;;;;10.46;54.91;98543.84;1694619;83;20952;-68
2021/04/25 07:16:07;;;;;;;8.93;5.85;;;;;;;10.60;53.93;98544.27;1710822;84;20929;-68
2021/04/25 07:18:37;;;;;;;8.25;5.60;;;;;;;10.81;53.59;98540.60;1731722;82;20963;-68
2021/04/25 07:21:05;;;;;;;6.05;4.78;;;;;;;11.04;52.29;98538.19;1757390;81;21369;-66
2021/04/25 07:23:38;;;;;;;10.40;6.50;;;;;;;11.33;51.93;98543.34;1757438;81;20951;-67
2021/04/25 07:26:08;;;;;;;14.40;6.30;;;;;;;11.59;51.78;98545.55;1757394;81;20959;-67
2021/04/25 07:28:37;;;;;;;6.90;5.55;;;;;;;11.68;49.96;98544.02;1723657;83;20944;-67
2021/04/25 07:31:05;;;;;;;6.45;5.37;;;;;;;11.79;48.97;98552.17;1694625;84;21020;-67
2021/04/25 07:33:33;;;;;;;9.28;6.17;;;;;;;11.79;48.94;98552.17;1710729;84;21273;-67
2021/04/25 07:36:08;;;;;;;7.20;5.90;;;;;;;11.61;48.50;98558.89;1694526;84;21059;-68
2021/04/25 07:38:40;;;;;;;8.58;6.22;;;;;;;11.43;49.07;98563.27;1731829;82;21043;-67
2021/04/25 07:41:08;;;;;;;7.80;6.30;;;;;;;11.21;50.00;98558.03;1757603;81;20928;-67
2021/04/25 07:43:37;;;;;;;10.10;7.08;;;;;;;10.96;51.03;98557.52;1757454;81;20938;-68
2021/04/25 07:46:05;;;;;;;7.58;6.22;;;;;;;10.80;52.10;98568.45;1757504;81;21486;-67
2021/04/25 07:48:34;;;;;;;9.08;6.55;;;;;;;10.64;53.43;98556.55;1757419;81;21030;-68
2021/04/25 07:51:04;;;;;;;10.30;6.55;;;;;;;10.53;53.78;98562.23;1723696;83;21031;-67
2021/04/25 07:53:31;;;;;;;13.95;7.22;;;;;;;10.56;55.08;98562.03;1694745;84;21636;-68
2021/04/25 07:56:00;;;;;;;10.20;6.22;;;;;;;10.69;55.55;98565.64;1711040;83;20968;-69
2021/04/25 07:58:27;;;;;;;7.25;6.30;;;;;;;10.87;54.92;98559.98;1693321;84;21433;-68
2021/04/25 08:00:57;;;;;;;10.03;6.75;;;;;;;11.11;54.45;98552.91;1710948;83;21020;-67
2021/04/25 08:03:25;;;;;;;12.18;6.17;;;;;;;11.36;52.20;98556.58;1694767;84;21019;-65
2021/04/25 08:05:53;;;;;;;9.48;7.05;;;;;;;11.56;52.34;98557.38;1710997;83;20960;-68
2021/04/25 08:08:20;;;;;;;9.15;6.53;;;;;;;11.76;52.66;98553.73;1694539;84;20974;-68
2021/04/25 08:10:49;;;;;;;12.20;6.45;;;;;;;11.85;50.73;98551.73;1723802;83;21393;-68
2021/04/25 08:13:16;;;;;;;7.85;6.78;;;;;;;11.89;50.96;98551.05;1694659;84;20965;-67
2021/04/25 08:15:44;;;;;;;8.40;6.33;;;;;;;11.81;50.44;98556.98;1710916;83;21024;-69
2021/04/25 08:18:14;;;;;;;7.83;6.30;;;;;;;11.72;50.55;98552.26;1693153;84;22272;-67
2021/04/25 08:20:42;;;;;;;10.90;6.60;;;;;;;11.57;51.44;98555.54;1710930;83;21004;-68
2021/04/25 08:23:10;;;;;;;7.53;6.78;;;;;;;11.37;51.61;98547.55;1694748;84;21460;-67
2021/04/25 08:25:39;;;;;;;10.30;6.90;;;;;;;11.23;52.12;98551.20;1710843;83;20967;-68
2021/04/25 08:28:06;;;;;;;8.98;5.35;;;;;;;11.14;52.79;98551.34;1723742;83;20972;-69
2021/04/25 08:30:35;;;;;;;12.33;6.35;;;;;;;11.06;51.87;98552.36;1694701;84;22284;-67
2021/04/25 08:33:05;;;;;;;9.78;6.92;;;;;;;11.08;52.48;98551.77;1710824;83;21043;-68
2021/04/25 08:35:33;;;;;;;8.00;6.35;;;;;;;11.16;52.74;98547.20;1731813;82;21242;-69
2021/04/25 08:38:00;;;;;;;7.30;4.97;;;;;;;11.21;52.28;98540.55;1694677;83;21322;-68
2021/04/25 08:40:31;;;;;;;7.22;5.40;;;;;;;11.29;51.08;98539.14;1711009;83;21071;-68
2021/04/25 08:43:01;;;;;;;11.30;5.78;;;;;;;11.39;49.83;98543.77;1723639;83;20951;-69
2021/04/25 08:45:29;;;;;;;8.20;4.92;;;;;;;11.49;48.45;98548.01;1694771;84;20953;-67
2021/04/25 08:48:00;;;;;;;6.55;5.20;;;;;;;11.53;47.20;98540.11;1710869;83;21207;-67
2021/04/25 08:50:31;;;;;;;14.00;5.58;;;;;;;11.52;44.83;98545.10;1694455;84;20977;-67
2021/04/25 08:52:59;;;;;;;9.08;5.10;;;;;;;11.55;45.47;98541.34;1723684;83;20932;-67
2021/04/25 08:55:32;;;;;;;6.72;4.87;;;;;;;11.58;46.57;98548.70;1694705;84;21080;-68
2021/04/25 08:58:00;;;;;;;8.50;6.15;;;;;;;11.62;46.70;98540.41;1710904;83;21492;-66
2021/04/25 09:00:28;;;;;;;6.85;5.15;;;;;;;11.61;47.61;98539.56;1693336;84;21393;-68
2021/04/25 09:02:55;;;;;;;17.87;7.30;;;;;;;11.56;47.84;98537.20;1710830;83;20992;-68
2021/04/25 09:05:25;;;;;;;6.35;4.80;;;;;;;11.62;48.63;98541.30;1731768;82;21591;-68
2021/04/25 09:08:01;;;;;;;9.03;5.35;;;;;;;11.65;47.57;98536.16;1757393;81;20994;-70
2021/04/25 09:10:38;;;;;;;6.08;5.47;;;;;;;11.69;47.24;98526.91;1757586;81;20939;-68
2021/04/25 09:13:22;;;;;;;7.83;5.45;;;;;;;11.73;46.09;98523.02;1723777;83;22323;-68
2021/04/25 09:15:54;;;;;;;9.58;5.58;;;;;;;11.79;47.82;98530.64;1723618;83;21054;-70
2021/04/25 09:18:32;;;;;;;12.15;7.03;;;;;;;11.80;47.78;98521.61;1694763;84;21080;-68
2021/04/25 09:21:07;;;;;;;6.37;5.45;;;;;;;11.80;47.61;98525.65;1710825;83;21047;-71
2021/04/25 09:23:35;;;;;;;8.08;5.72;;;;;;;11.81;48.01;98524.69;1731858;82;21011;-68
2021/04/25 09:26:06;;;;;;;7.75;5.75;;;;;;;11.78;46.89;98526.25;1694812;84;21436;-69
2021/04/25 09:28:34;;;;;;;7.70;5.65;;;;;;;11.71;47.21;98529.00;1710832;83;21438;-68
2021/04/25 09:31:09;;;;;;;8.48;5.53;;;;;;;11.66;47.92;98525.30;1693208;84;21032;-69
2021/04/25 09:33:56;;;;;;;10.00;5.37;;;;;;;11.64;49.10;98529.08;1694632;84;20963;-69
2021/04/25 09:36:28;;;;;;;7.70;5.80;;;;;;;11.56;49.24;98526.94;1710877;83;21004;-67
2021/04/25 09:39:14;;;;;;;9.43;6.20;;;;;;;11.50;49.63;98532.25;1698069;84;21380;-68
2021/04/25 09:41:41;;;;;;;6.95;5.45;;;;;;;11.48;50.10;98531.52;1729594;83;21011;-68
2021/04/25 09:44:36;;;;;;;8.83;5.60;;;;;;;11.41;50.20;98529.36;1765780;81;20915;-69
2021/04/25 09:47:05;;;;;;;10.18;5.65;;;;;;;11.36;50.19;98527.00;1731701;82;20995;-67
2021/04/25 09:49:52;;;;;;;13.00;7.53;;;;;;;11.29;51.06;98525.70;1765821;81;20991;-68
2021/04/25 09:52:38;;;;;;;9.78;6.45;;;;;;;11.26;51.62;98525.91;1765598;81;21382;-69
2021/04/25 09:55:22;;;;;;;7.80;6.28;;;;;;;11.22;52.16;98526.62;1765705;81;20966;-68
2021/04/25 09:57:57;;;;;;;6.83;5.47;;;;;;;11.13;51.35;98526.80;1731892;82;21095;-69
2021/04/25 10:00:49;;;;;;;10.15;6.37;;;;;;;11.09;51.35;98516.36;1730594;82;20979;-66
2021/04/25 10:03:19;;;;;;;7.60;6.65;;;;;;;10.98;49.28;98525.16;1731692;82;20971;-69
2021/04/25 10:06:03;;;;;;;9.80;6.95;;;;;;;10.85;49.45;98524.66;1731761;82;21203;-67
2021/04/25 10:08:36;;;;;;;9.60;6.25;;;;;;;10.75;50.90;98519.55;1765818;81;21010;-68
2021/04/25 10:11:07;;;;;;;7.50;5.83;;;;;;;10.61;51.57;98516.91;1731914;82;28654;-69
2021/04/25 10:13:44;;;;;;;7.42;6.65;;;;;;;10.48;50.46;98515.09;1765561;81;20911;-67
2021/04/25 10:16:12;;;;;;;6.85;6.17;;;;;;;10.41;50.52;98519.13;1731760;82;20959;-68
2021/04/25 10:18:40;;;;;;;7.35;5.60;;;;;;;10.33;50.79;98505.36;1731708;82;21375;-67
2021/04/25 10:21:08;;;;;;;7.95;6.55;;;;;;;10.25;50.30;98500.96;1702422;84;20979;-68
2021/04/25 10:23:36;;;;;;;9.10;6.85;;;;;;;10.13;50.92;98498.10;1765704;81;20955;-67
2021/04/25 10:26:13;;;;;;;8.68;5.72;;;;;;;10.07;51.89;98502.53;1765826;81;21018;-68
2021/04/25 10:29:00;;;;;;;8.60;5.85;;;;;;;10.01;52.48;98501.63;1765866;81;21007;-67
2021/04/25 10:31:37;;;;;;;10.53;7.10;;;;;;;9.97;53.25;98507.28;1765798;81;21263;-67
2021/04/25 10:34:07;;;;;;;7.87;6.20;;;;;;;9.94;55.96;98502.97;1765689;81;20995;-68
2021/04/25 10:36:55;;;;;;;7.67;6.10;;;;;;;9.86;54.06;98507.48;1765754;81;21042;-67
2021/04/25 10:39:49;;;;;;;10.08;6.15;;;;;;;9.84;56.22;98503.17;1731602;82;21023;-69
2021/04/25 10:42:25;;;;;;;6.08;5.45;;;;;;;9.82;56.16;98505.09;1731740;82;20943;-68
2021/04/25 10:45:03;;;;;;;7.75;6.35;;;;;;;9.78;56.56;98496.39;1731717;82;21450;-68
2021/04/25 10:47:42;;;;;;;6.92;5.95;;;;;;;9.70;54.35;98496.89;1765664;81;21018;-68
2021/04/25 10:50:19;;;;;;;7.40;5.75;;;;;;;9.62;53.79;98493.84;1731732;82;20975;-69
2021/04/25 10:52:50;;;;;;;8.03;6.40;;;;;;;9.56;55.43;98502.28;1702492;84;20955;-67
2021/04/25 10:55:32;;;;;;;7.50;6.20;;;;;;;9.48;55.01;98500.08;1765747;81;20935;-68
2021/04/25 10:58:07;;;;;;;7.65;6.67;;;;;;;9.45;55.80;98499.42;1731707;82;21380;-66
2021/04/25 11:00:42;;;;;;;8.40;7.35;;;;;;;9.38;53.70;98497.13;1702441;84;21380;-67
2021/04/25 11:03:23;;;;;;;7.40;6.70;;;;;;;9.33;54.18;98487.18;1765715;81;20943;-67
2021/04/25 11:05:54;;;;;;;8.08;7.10;;;;;;;9.29;54.09;98500.87;1731682;82;21003;-67
2021/04/25 11:08:40;;;;;;;7.70;6.30;;;;;;;9.24;55.43;98499.81;1765754;81;21597;-67
2021/04/25 11:11:11;;;;;;;8.58;6.67;;;;;;;9.22;54.47;98500.36;1765811;81;21361;-68
2021/04/25 11:13:45;;;;;;;11.75;7.50;;;;;;;9.18;53.88;98494.83;1765771;81;20934;-68
2021/04/25 11:16:26;;;;;;;8.55;7.65;;;;;;;9.18;55.23;98501.53;1731967;82;21030;-67
2021/04/25 11:19:09;;;;;;;7.95;6.53;;;;;;;9.16;55.68;98502.96;1731637;82;21619;-66
2021/04/25 11:21:53;;;;;;;8.45;6.87;;;;;;;9.18;55.62;98500.19;1702697;84;20964;-67
2021/04/25 11:24:28;;;;;;;8.50;7.60;;;;;;;9.17;55.02;98494.44;1765887;81;21010;-67
2021/04/25 11:27:00;;;;;;;7.97;7.17;;;;;;;9.17;55.49;98485.06;1731977;82;21334;-67
2021/04/25 11:29:40;;;;;;;10.00;6.50;;;;;;;9.15;54.98;98492.34;1765899;81;20956;-66
2021/04/25 11:32:22;;;;;;;8.20;6.22;;;;;;;9.13;55.18;98492.89;1765668;81;20954;-66
2021/04/25 11:35:04;;;;;;;8.95;7.15;;;;;;;9.09;54.83;98496.73;1757663;80;20966;-68
2021/04/25 11:37:34;;;;;;;7.42;6.67;;;;;;;9.06;55.16;98487.55;1766037;81;21385;-67
2021/04/25 11:40:07;;;;;;;8.50;7.53;;;;;;;9.03;55.80;98490.80;1758957;81;21018;-68
2021/04/25 11:42:49;;;;;;;7.83;7.12;;;;;;;9.03;56.41;98481.43;1723798;83;21571;-68
2021/04/25 11:45:23;;;;;;;9.35;6.40;;;;;;;9.08;56.35;98478.47;1694870;84;20999;-68